createdAt,value
2018-07-31T00:01:32.910Z,98989.09
2018-07-31T00:04:01.520Z,98993.98
2018-07-31T00:06:30.064Z,98998.66
2018-07-31T00:08:58.524Z,98993.03
2018-07-31T00:11:26.966Z,98992.22
2018-07-31T00:13:55.430Z,98988.47
2018-07-31T00:16:23.865Z,98989.59
2018-07-31T00:18:52.612Z,98991.06
2018-07-31T00:21:21.043Z,98990.00
2018-07-31T00:23:49.519Z,98978.98
2018-07-31T00:26:17.994Z,98974.73
2018-07-31T00:28:46.500Z,98980.52
2018-07-31T00:31:15.059Z,98982.34
2018-07-31T00:33:43.991Z,98983.58
2018-07-31T00:36:12.432Z,98979.84
2018-07-31T00:38:40.889Z,98983.28
2018-07-31T00:41:09.377Z,98980.97
2018-07-31T00:43:37.828Z,98981.08
2018-07-31T00:46:06.294Z,98984.43
2018-07-31T00:48:34.799Z,98976.89
2018-07-31T00:51:03.405Z,98976.28
2018-07-31T00:53:32.015Z,98976.28
2018-07-31T00:56:01.530Z,98972.85
2018-07-31T00:58:29.978Z,98971.51
2018-07-31T01:00:58.451Z,98969.61
2018-07-31T01:03:26.952Z,98978.09
2018-07-31T01:05:55.472Z,98972.31
2018-07-31T01:08:23.923Z,98974.93
2018-07-31T01:10:52.557Z,98979.64
2018-07-31T01:13:21.047Z,98973.20
2018-07-31T01:15:49.588Z,98970.23
2018-07-31T01:18:18.020Z,98974.89
2018-07-31T01:20:48.939Z,98965.88
2018-07-31T01:23:19.041Z,98973.13
2018-07-31T01:25:47.800Z,98970.80
2018-07-31T01:28:16.302Z,98971.42
2018-07-31T01:30:46.608Z,98967.19
2018-07-31T01:33:15.061Z,98966.53
2018-07-31T01:35:43.540Z,98966.56
2018-07-31T01:38:12.785Z,98838.84
2018-07-31T01:40:41.324Z,98968.08
2018-07-31T01:43:10.316Z,98971.19
2018-07-31T01:45:38.907Z,98970.98
2018-07-31T01:48:08.031Z,98967.42
2018-07-31T01:50:36.502Z,98971.72
2018-07-31T01:53:04.959Z,98971.28
2018-07-31T01:55:33.447Z,98962.16
2018-07-31T01:58:02.347Z,98962.90
2018-07-31T02:00:31.722Z,98962.90
2018-07-31T02:03:00.582Z,98964.05
2018-07-31T02:05:29.816Z,98968.70
2018-07-31T02:07:59.563Z,98965.09
2018-07-31T02:10:28.299Z,98961.62
2018-07-31T02:12:56.799Z,98963.98
2018-07-31T02:15:25.296Z,98956.47
2018-07-31T02:17:53.784Z,98961.36
2018-07-31T02:20:22.234Z,98966.31
2018-07-31T02:22:51.008Z,98966.81
2018-07-31T02:25:19.451Z,98962.65
2018-07-31T02:27:48.176Z,98962.02
2018-07-31T02:30:23.412Z,98960.36
2018-07-31T02:32:53.052Z,98956.64
2018-07-31T02:35:21.557Z,98962.40
2018-07-31T02:37:50.050Z,98960.30
2018-07-31T02:40:19.187Z,98963.84
2018-07-31T02:42:47.676Z,98962.31
2018-07-31T02:45:16.163Z,98965.19
2018-07-31T02:47:46.398Z,98969.17
2018-07-31T02:50:14.844Z,98963.69
2018-07-31T02:52:43.321Z,98962.66
2018-07-31T02:55:12.768Z,98966.56
2018-07-31T02:57:41.606Z,98960.46
2018-07-31T03:00:11.088Z,98956.95
2018-07-31T03:02:40.511Z,98954.83
2018-07-31T03:05:10.772Z,98955.83
2018-07-31T03:07:40.202Z,98951.79
2018-07-31T03:10:09.911Z,98959.14
2018-07-31T03:12:38.377Z,98962.46
2018-07-31T03:15:08.366Z,98969.84
2018-07-31T03:17:36.974Z,98967.12
2018-07-31T03:20:06.403Z,98978.97
2018-07-31T03:22:35.044Z,98966.12
2018-07-31T03:25:04.151Z,98964.84
2018-07-31T03:27:32.571Z,98964.22
2018-07-31T03:30:01.654Z,98964.13
2018-07-31T03:32:30.304Z,98965.72
2018-07-31T03:34:58.947Z,98960.66
2018-07-31T03:37:27.590Z,98963.98
2018-07-31T03:39:56.623Z,98962.59
2018-07-31T03:42:26.883Z,98965.77
2018-07-31T03:44:55.722Z,98971.28
2018-07-31T03:47:24.509Z,98974.25
2018-07-31T03:49:53.623Z,98976.33
2018-07-31T03:52:23.140Z,98977.23
2018-07-31T03:54:52.500Z,98980.63
2018-07-31T03:57:23.389Z,98977.48
2018-07-31T03:59:52.930Z,98971.53
2018-07-31T04:02:22.778Z,98976.59
2018-07-31T04:04:51.707Z,98977.70
2018-07-31T04:07:21.312Z,98986.98
2018-07-31T04:09:51.829Z,98972.42
2018-07-31T04:12:21.086Z,98984.16
2018-07-31T04:14:50.600Z,98983.72
2018-07-31T04:17:19.492Z,98992.05
2018-07-31T04:19:49.135Z,98983.26
2018-07-31T04:22:18.063Z,98983.61
2018-07-31T04:24:48.930Z,98987.00
2018-07-31T04:27:18.616Z,98986.87
2018-07-31T04:29:48.426Z,98983.79
2018-07-31T04:32:17.176Z,98981.66
2018-07-31T04:34:46.384Z,98976.51
2018-07-31T04:37:15.029Z,98983.86
2018-07-31T04:39:43.592Z,98984.12
2018-07-31T04:42:12.183Z,98990.83
2018-07-31T04:44:41.855Z,98976.09
2018-07-31T04:47:11.007Z,98980.68
2018-07-31T04:49:39.526Z,98979.78
2018-07-31T04:52:08.115Z,98981.00
2018-07-31T04:54:36.688Z,98984.26
2018-07-31T04:57:05.786Z,98990.30
2018-07-31T04:59:34.892Z,98987.94
2018-07-31T05:02:03.493Z,98990.67
2018-07-31T05:04:32.736Z,98989.20
2018-07-31T05:07:01.223Z,98990.19
2018-07-31T05:09:29.772Z,99000.53
2018-07-31T05:11:59.097Z,98991.78
2018-07-31T05:14:27.555Z,98996.09
2018-07-31T05:16:56.177Z,98993.53
2018-07-31T05:19:25.060Z,98992.81
2018-07-31T05:21:53.960Z,98995.16
2018-07-31T05:24:22.452Z,98999.58
2018-07-31T05:26:50.932Z,99000.05
2018-07-31T05:29:19.462Z,99003.91
2018-07-31T05:31:48.024Z,98999.12
2018-07-31T05:34:16.612Z,99004.48
2018-07-31T05:36:45.833Z,99007.91
2018-07-31T05:41:58.058Z,99006.52
2018-07-31T05:44:26.607Z,99013.00
2018-07-31T05:46:55.755Z,99011.51
2018-07-31T05:49:24.653Z,99009.87
2018-07-31T05:51:53.276Z,99017.67
2018-07-31T05:54:21.788Z,99020.53
2018-07-31T05:56:50.773Z,99019.56
2018-07-31T05:59:19.257Z,99016.47
2018-07-31T06:01:48.223Z,99014.74
2018-07-31T06:04:16.692Z,99014.44
2018-07-31T06:06:45.198Z,99016.56
2018-07-31T06:09:13.729Z,99018.63
2018-07-31T06:11:42.208Z,99023.66
2018-07-31T06:14:11.693Z,99016.28
2018-07-31T06:16:40.203Z,99015.77
2018-07-31T06:19:09.175Z,99021.55
2018-07-31T06:21:38.116Z,99029.38
2018-07-31T06:24:07.661Z,99027.73
2018-07-31T06:26:36.172Z,99032.16
2018-07-31T06:29:04.685Z,99033.00
2018-07-31T06:31:33.303Z,99036.46
2018-07-31T06:34:01.815Z,99039.35
2018-07-31T06:36:30.328Z,99033.06
2018-07-31T06:38:58.808Z,99042.24
2018-07-31T06:41:28.824Z,99044.96
2018-07-31T06:43:58.050Z,99042.83
2018-07-31T06:46:26.499Z,99038.78
2018-07-31T06:48:55.073Z,99040.44
2018-07-31T06:51:23.570Z,99047.58
2018-07-31T06:53:52.107Z,99047.44
2018-07-31T06:56:20.638Z,99054.26
2018-07-31T06:58:49.281Z,99050.18
2018-07-31T07:01:17.767Z,99053.45
2018-07-31T07:03:46.203Z,99042.48
2018-07-31T07:06:14.916Z,99044.77
2018-07-31T07:08:43.392Z,99043.50
2018-07-31T07:11:11.905Z,99046.83
2018-07-31T07:13:40.389Z,99055.11
2018-07-31T07:16:08.894Z,99058.91
2018-07-31T07:18:37.857Z,99060.85
2018-07-31T07:21:07.246Z,99053.95
2018-07-31T07:23:36.498Z,99055.27
2018-07-31T07:26:05.263Z,99053.89
2018-07-31T07:28:33.775Z,99048.72
2018-07-31T07:31:02.298Z,99050.86
2018-07-31T07:33:30.860Z,99053.91
2018-07-31T07:35:59.307Z,99053.54
2018-07-31T07:38:28.244Z,99055.52
2018-07-31T07:40:56.782Z,99052.62
2018-07-31T07:43:26.049Z,99053.35
2018-07-31T07:45:55.127Z,99053.23
2018-07-31T07:48:23.632Z,99048.87
2018-07-31T07:50:52.102Z,99056.24
2018-07-31T07:53:20.615Z,99052.72
2018-07-31T07:55:49.241Z,99055.70
2018-07-31T07:58:17.997Z,99056.05
2018-07-31T08:00:47.705Z,99056.30
2018-07-31T08:03:16.368Z,99053.63
2018-07-31T08:05:44.960Z,99052.29
2018-07-31T08:08:13.429Z,99054.52
2018-07-31T08:10:43.521Z,99054.65
2018-07-31T08:13:13.478Z,99052.55
2018-07-31T08:15:42.750Z,99062.38
2018-07-31T08:18:12.337Z,99058.97
2018-07-31T08:20:40.828Z,99053.59
2018-07-31T08:23:09.386Z,99059.42
2018-07-31T08:25:37.905Z,99052.95
2018-07-31T08:28:06.663Z,99060.39
2018-07-31T08:30:35.161Z,99063.84
2018-07-31T08:33:03.711Z,99066.24
2018-07-31T08:35:33.608Z,99059.75
2018-07-31T08:38:02.149Z,99061.83
2018-07-31T08:40:31.396Z,99072.89
2018-07-31T08:43:00.267Z,99073.73
2018-07-31T08:45:29.594Z,99072.02
2018-07-31T08:47:58.388Z,99075.83
2018-07-31T08:50:27.531Z,99070.25
2018-07-31T08:52:57.161Z,99073.48
2018-07-31T08:55:25.720Z,99067.23
2018-07-31T08:57:54.303Z,99064.53
2018-07-31T09:00:23.658Z,99074.33
2018-07-31T09:02:52.251Z,99061.86
2018-07-31T09:05:20.800Z,99067.92
2018-07-31T09:07:49.406Z,99065.67
2018-07-31T09:10:19.817Z,99068.49
2018-07-31T09:12:49.270Z,99070.17
2018-07-31T09:15:17.823Z,99062.61
2018-07-31T09:17:46.321Z,99066.01
2018-07-31T09:20:15.640Z,99063.93
2018-07-31T09:22:44.332Z,99066.44
2018-07-31T09:25:13.473Z,99068.86
2018-07-31T09:27:42.272Z,99065.76
2018-07-31T09:30:10.895Z,99062.72
2018-07-31T09:32:44.601Z,99070.30
2018-07-31T09:35:13.598Z,99068.05
2018-07-31T09:37:42.329Z,99067.40
2018-07-31T09:40:11.571Z,99072.80
2018-07-31T09:42:40.599Z,99072.05
2018-07-31T09:45:09.356Z,99064.95
2018-07-31T09:47:38.335Z,99066.13
2018-07-31T09:50:07.222Z,99070.70
2018-07-31T09:52:36.191Z,99065.77
2018-07-31T09:55:05.076Z,99067.62
2018-07-31T09:57:35.584Z,99074.41
2018-07-31T10:00:05.757Z,99066.34
2018-07-31T10:02:34.423Z,99066.83
2018-07-31T10:05:03.234Z,99060.80
2018-07-31T10:07:32.020Z,99070.70
2018-07-31T10:10:00.725Z,99067.48
2018-07-31T10:12:29.718Z,99067.52
2018-07-31T10:14:59.142Z,99071.06
2018-07-31T10:17:28.451Z,99064.88
2018-07-31T10:19:57.236Z,99070.23
2018-07-31T10:22:26.010Z,99068.94
2018-07-31T10:24:55.358Z,99065.66
2018-07-31T10:29:53.273Z,99082.01
2018-07-31T10:32:22.262Z,99077.52
2018-07-31T10:34:51.667Z,99075.14
2018-07-31T10:37:20.715Z,99081.02
2018-07-31T10:39:49.745Z,99069.70
2018-07-31T10:42:19.895Z,99066.62
2018-07-31T10:44:49.273Z,99068.61
2018-07-31T10:47:18.436Z,99068.02
2018-07-31T10:49:48.040Z,99065.28
2018-07-31T10:52:16.957Z,99069.13
2018-07-31T10:54:46.653Z,99064.81
2018-07-31T10:57:15.448Z,99061.70
2018-07-31T10:59:45.986Z,99062.44
2018-07-31T11:02:14.920Z,99061.36
2018-07-31T11:04:43.945Z,98985.28
2018-07-31T11:07:12.899Z,99060.31
2018-07-31T11:09:41.907Z,99066.50
2018-07-31T11:12:11.373Z,99062.11
2018-07-31T11:14:40.582Z,99063.36
2018-07-31T11:17:09.716Z,99047.55
2018-07-31T11:19:39.624Z,99061.95
2018-07-31T11:22:09.457Z,99061.31
2018-07-31T11:24:38.754Z,99068.83
2018-07-31T11:27:08.590Z,99064.30
2018-07-31T11:29:38.209Z,99063.38
2018-07-31T11:32:08.815Z,99062.02
2018-07-31T11:34:38.384Z,99053.42
2018-07-31T11:37:07.915Z,99054.97
2018-07-31T11:39:38.262Z,99053.31
2018-07-31T11:42:08.287Z,99048.28
2018-07-31T11:44:37.379Z,99053.26
2018-07-31T11:47:06.587Z,99051.19
2018-07-31T11:49:35.674Z,99049.07
2018-07-31T11:52:04.643Z,99048.30
2018-07-31T11:54:34.453Z,99039.11
2018-07-31T11:57:03.711Z,99044.45
2018-07-31T11:59:33.107Z,99051.97
2018-07-31T12:02:02.618Z,99039.59
2018-07-31T12:04:31.643Z,99045.69
2018-07-31T12:07:00.750Z,99043.14
2018-07-31T12:09:29.899Z,99047.81
2018-07-31T12:11:59.127Z,99043.63
2018-07-31T12:14:30.037Z,99046.08
2018-07-31T12:16:58.886Z,99049.55
2018-07-31T12:19:27.873Z,99045.75
2018-07-31T12:21:56.814Z,99033.58
2018-07-31T12:24:25.871Z,99038.15
2018-07-31T12:26:56.019Z,99038.45
2018-07-31T12:29:27.353Z,99037.38
2018-07-31T12:31:58.760Z,99035.44
2018-07-31T12:34:29.081Z,99038.08
2018-07-31T12:36:59.569Z,99034.97
2018-07-31T12:39:29.878Z,99044.02
2018-07-31T12:42:00.946Z,99047.84
2018-07-31T12:44:30.834Z,99048.22
2018-07-31T12:47:00.282Z,99046.14
2018-07-31T12:49:30.762Z,99043.83
2018-07-31T12:52:02.779Z,99044.48
2018-07-31T12:54:31.786Z,99044.47
2018-07-31T12:57:00.795Z,99042.96
2018-07-31T12:59:30.531Z,99049.34
2018-07-31T13:02:00.890Z,99043.09
2018-07-31T13:04:31.177Z,99048.43
2018-07-31T13:07:01.824Z,99045.91
2018-07-31T13:09:31.174Z,99053.90
2018-07-31T13:12:00.746Z,99050.06
2018-07-31T13:14:29.854Z,99049.70
2018-07-31T13:17:00.834Z,99049.41
2018-07-31T13:19:30.348Z,99047.70
2018-07-31T13:21:59.660Z,99043.38
2018-07-31T13:24:29.767Z,99048.43
2018-07-31T13:27:01.293Z,99047.48
2018-07-31T13:29:31.466Z,99052.12
2018-07-31T13:32:01.169Z,99049.74
2018-07-31T13:34:31.617Z,99051.20
2018-07-31T13:37:01.052Z,99043.95
2018-07-31T13:39:31.154Z,99050.06
2018-07-31T13:42:01.001Z,99044.56
2018-07-31T13:44:30.030Z,99051.98
2018-07-31T13:46:59.257Z,99053.59
2018-07-31T13:49:28.804Z,99047.66
2018-07-31T13:51:58.973Z,99050.25
2018-07-31T13:54:29.479Z,99049.44
2018-07-31T13:56:59.385Z,99046.28
2018-07-31T13:59:29.600Z,99056.25
2018-07-31T14:01:59.726Z,99052.20
2018-07-31T14:04:28.996Z,99050.48
2018-07-31T14:06:58.716Z,99048.94
2018-07-31T14:09:28.571Z,99047.51
2018-07-31T14:11:57.639Z,99043.93
2018-07-31T14:14:26.737Z,99047.66
2018-07-31T14:16:57.616Z,99057.52
2018-07-31T14:19:27.067Z,99056.02
2018-07-31T14:21:58.212Z,99046.97
2018-07-31T14:24:27.744Z,99049.63
2018-07-31T14:26:56.668Z,99047.77
2018-07-31T14:29:25.196Z,99050.92
2018-07-31T14:31:59.222Z,99037.41
2018-07-31T14:34:28.852Z,99043.66
2018-07-31T14:36:58.184Z,99051.34
2018-07-31T14:39:28.276Z,99048.83
2018-07-31T14:41:57.457Z,99047.99
2018-07-31T14:44:28.956Z,99040.31
2018-07-31T14:47:03.954Z,99045.66
2018-07-31T14:49:36.283Z,99048.73
2018-07-31T14:52:09.888Z,99051.43
2018-07-31T14:54:39.735Z,99047.73
2018-07-31T14:57:11.904Z,99052.93
2018-07-31T14:59:42.798Z,99052.38
2018-07-31T15:02:13.226Z,99051.71
2018-07-31T15:04:42.850Z,99058.39
2018-07-31T15:07:13.333Z,99051.13
2018-07-31T15:09:43.626Z,99049.78
2018-07-31T15:12:13.184Z,99049.76
2018-07-31T15:14:42.444Z,99046.48
2018-07-31T15:17:12.798Z,99050.97
2018-07-31T15:19:42.120Z,98974.01
2018-07-31T15:22:11.241Z,99046.31
2018-07-31T15:24:41.042Z,99048.37
2018-07-31T15:27:10.426Z,99048.53
2018-07-31T15:29:39.329Z,99043.42
2018-07-31T15:32:08.288Z,99046.53
2018-07-31T15:34:37.094Z,99046.97
2018-07-31T15:37:06.092Z,99050.02
2018-07-31T15:39:35.402Z,99045.63
2018-07-31T15:42:04.808Z,99049.70
2018-07-31T15:44:34.055Z,99047.15
2018-07-31T15:47:03.378Z,99048.52
2018-07-31T15:49:32.176Z,99050.53
2018-07-31T15:52:00.896Z,99054.17
2018-07-31T15:54:29.628Z,99045.05
2018-07-31T15:56:59.236Z,99039.89
2018-07-31T15:59:28.957Z,99045.47
2018-07-31T16:01:57.955Z,99041.46
2018-07-31T16:04:26.931Z,99047.58
2018-07-31T16:06:55.842Z,99039.05
2018-07-31T16:09:24.581Z,99043.96
2018-07-31T16:11:53.699Z,99042.80
2018-07-31T16:14:23.639Z,99041.19
2018-07-31T16:16:52.884Z,99043.34
2018-07-31T16:19:22.683Z,99040.77
2018-07-31T16:21:52.169Z,99036.35
2018-07-31T16:24:21.939Z,99036.18
2018-07-31T16:26:51.694Z,99038.79
2018-07-31T16:29:21.199Z,99044.97
2018-07-31T16:31:50.064Z,99030.63
2018-07-31T16:34:19.580Z,99035.85
2018-07-31T16:36:51.032Z,99041.36
2018-07-31T16:39:20.331Z,99035.66
2018-07-31T16:41:49.890Z,99040.77
2018-07-31T16:44:19.156Z,99040.25
2018-07-31T16:46:49.731Z,99044.08
2018-07-31T16:49:18.161Z,99043.36
2018-07-31T16:51:48.107Z,99034.20
2018-07-31T16:54:18.700Z,99041.55
2018-07-31T16:56:47.796Z,99039.48
2018-07-31T16:59:16.946Z,99042.80
2018-07-31T17:01:47.952Z,99048.14
2018-07-31T17:04:16.707Z,99050.28
2018-07-31T17:06:46.516Z,99051.69
2018-07-31T17:09:15.249Z,99051.97
2018-07-31T17:11:45.998Z,99054.46
2018-07-31T17:14:15.596Z,99048.41
2018-07-31T17:16:44.391Z,99054.30
2018-07-31T17:19:13.146Z,99053.95
2018-07-31T17:21:41.886Z,99056.78
2018-07-31T17:24:11.188Z,99052.34
2018-07-31T17:26:40.877Z,99064.73
2018-07-31T17:29:09.954Z,99066.70
2018-07-31T17:31:39.566Z,99067.00
2018-07-31T17:34:09.383Z,99065.89
2018-07-31T17:36:39.008Z,99070.00
2018-07-31T17:39:09.740Z,99063.68
2018-07-31T17:41:40.175Z,99066.42
2018-07-31T17:44:10.837Z,99065.90
2018-07-31T17:46:39.632Z,99069.48
2018-07-31T17:49:09.396Z,99076.63
2018-07-31T17:51:39.498Z,99074.98
2018-07-31T17:54:10.297Z,99073.30
2018-07-31T17:56:39.257Z,99070.02
2018-07-31T17:59:08.582Z,99076.61
2018-07-31T18:01:39.115Z,99082.35
2018-07-31T18:04:08.491Z,99080.41
2018-07-31T18:06:37.150Z,99082.59
2018-07-31T18:09:09.427Z,99081.44
2018-07-31T18:11:40.166Z,99080.33
2018-07-31T18:14:09.757Z,99079.16
2018-07-31T18:16:39.294Z,99084.63
2018-07-31T18:19:08.690Z,99071.90
2018-07-31T18:21:37.710Z,99081.17
2018-07-31T18:24:07.113Z,99081.62
2018-07-31T18:26:35.980Z,99087.37
2018-07-31T18:29:05.255Z,99088.11
2018-07-31T18:31:35.188Z,99089.13
2018-07-31T18:34:04.328Z,99093.02
2018-07-31T18:36:34.808Z,99097.41
2018-07-31T18:39:05.250Z,99091.15
2018-07-31T18:41:40.126Z,99092.00
2018-07-31T18:44:10.151Z,99094.09
2018-07-31T18:46:41.621Z,99096.23
2018-07-31T18:49:10.761Z,99102.51
2018-07-31T18:51:42.288Z,99099.30
2018-07-31T18:54:11.652Z,99099.77
2018-07-31T18:56:40.914Z,99105.09
2018-07-31T18:59:10.102Z,99105.90
2018-07-31T19:01:39.918Z,99111.53
2018-07-31T19:04:09.096Z,99116.25
2018-07-31T19:06:38.770Z,99115.42
2018-07-31T19:09:12.492Z,99118.00
2018-07-31T19:11:43.224Z,99123.81
2018-07-31T19:14:12.770Z,99125.14
2018-07-31T19:16:43.334Z,99127.89
2018-07-31T19:19:13.425Z,99130.88
2018-07-31T19:21:45.319Z,99128.02
2018-07-31T19:24:15.567Z,99137.73
2018-07-31T19:26:46.161Z,99139.61
2018-07-31T19:29:15.556Z,99136.48
2018-07-31T19:31:49.470Z,99141.30
2018-07-31T19:34:20.480Z,99140.86
2018-07-31T19:36:51.435Z,99144.38
2018-07-31T19:39:20.672Z,99143.72
2018-07-31T19:41:51.025Z,99150.88
2018-07-31T19:44:20.171Z,99151.21
2018-07-31T19:46:49.793Z,99159.25
2018-07-31T19:49:18.623Z,99158.50
2018-07-31T19:51:47.311Z,99168.77
2018-07-31T19:54:18.974Z,99165.05
2018-07-31T19:56:48.089Z,99164.55
2018-07-31T19:59:17.318Z,99169.48
2018-07-31T20:01:47.323Z,99174.48
2018-07-31T20:04:16.549Z,99172.11
2018-07-31T20:06:47.225Z,99174.19
2018-07-31T20:09:23.346Z,99178.20
2018-07-31T20:11:52.284Z,99183.34
2018-07-31T20:14:21.937Z,99178.98
2018-07-31T20:16:51.677Z,99181.91
2018-07-31T20:19:21.228Z,99185.70
2018-07-31T20:21:50.867Z,99188.27
2018-07-31T20:24:20.292Z,99184.75
2018-07-31T20:26:49.449Z,99184.56
2018-07-31T20:29:20.242Z,99191.20
2018-07-31T20:31:49.367Z,99188.71
2018-07-31T20:34:18.184Z,99190.47
2018-07-31T20:36:49.493Z,99189.71
2018-07-31T20:39:18.854Z,99184.73
2018-07-31T20:41:48.244Z,99183.97
2018-07-31T20:44:16.998Z,99183.36
2018-07-31T20:46:46.220Z,99183.96
2018-07-31T20:49:15.395Z,99191.52
2018-07-31T20:51:45.528Z,99190.53
2018-07-31T20:54:14.119Z,99204.70
2018-07-31T20:56:42.659Z,99201.31
2018-07-31T20:59:12.423Z,99202.28
2018-07-31T21:01:41.551Z,99208.14
2018-07-31T21:04:10.491Z,99204.62
2018-07-31T21:06:40.223Z,99203.17
2018-07-31T21:09:11.663Z,99207.41
2018-07-31T21:11:41.179Z,99201.44
2018-07-31T21:14:11.555Z,99199.13
2018-07-31T21:16:40.664Z,99206.49
2018-07-31T21:19:11.272Z,99198.09
2018-07-31T21:21:41.861Z,99204.48
2018-07-31T21:24:10.839Z,99201.37
2018-07-31T21:26:40.298Z,99205.17
2018-07-31T21:29:09.263Z,99214.81
2018-07-31T21:31:37.922Z,99228.43
2018-07-31T21:34:07.075Z,99227.80
2018-07-31T21:36:36.376Z,99232.84
2018-07-31T21:39:08.910Z,99233.31
2018-07-31T21:41:37.876Z,99236.83
2018-07-31T21:44:06.728Z,99242.93
2018-07-31T21:46:36.160Z,99248.74
2018-07-31T21:49:05.374Z,99249.19
2018-07-31T21:51:34.581Z,99255.97
2018-07-31T21:54:04.563Z,99252.84
2018-07-31T21:56:33.373Z,99248.33
2018-07-31T21:59:03.716Z,99248.20
2018-07-31T22:01:35.387Z,99248.15
2018-07-31T22:04:04.083Z,99256.35
2018-07-31T22:06:32.589Z,99250.65
2018-07-31T22:09:02.643Z,99250.31
2018-07-31T22:11:35.840Z,99255.40
2018-07-31T22:14:04.810Z,99252.63
2018-07-31T22:16:34.797Z,99253.77
2018-07-31T22:19:03.527Z,99254.62
2018-07-31T22:21:33.313Z,99252.25
2018-07-31T22:24:02.799Z,99244.44
2018-07-31T22:26:31.524Z,99237.80
2018-07-31T22:29:00.102Z,99238.23
2018-07-31T22:31:28.628Z,99237.86
2018-07-31T22:33:58.092Z,99245.78
2018-07-31T22:36:27.837Z,99247.68
2018-07-31T22:38:57.227Z,99248.63
2018-07-31T22:41:26.037Z,99248.09
2018-07-31T22:43:54.872Z,99245.31
2018-07-31T22:46:24.015Z,99242.67
2018-07-31T22:48:52.729Z,99238.50
2018-07-31T22:51:21.815Z,99245.28
2018-07-31T22:53:50.756Z,99247.68
2018-07-31T22:56:19.395Z,99248.90
2018-07-31T22:58:48.133Z,99249.48
2018-07-31T23:01:16.659Z,99250.09
2018-07-31T23:03:46.130Z,99253.77
2018-07-31T23:06:15.900Z,99252.91
2018-07-31T23:08:44.789Z,99257.48
2018-07-31T23:11:14.303Z,99263.31
2018-07-31T23:13:42.916Z,99264.56
2018-07-31T23:16:11.755Z,99275.20
2018-07-31T23:18:40.809Z,99277.17
2018-07-31T23:21:09.383Z,99280.08
2018-07-31T23:23:38.245Z,99280.72
2018-07-31T23:26:07.394Z,99280.41
2018-07-31T23:28:35.945Z,99282.59
2018-07-31T23:31:04.399Z,99279.27
2018-07-31T23:33:35.335Z,99276.23
2018-07-31T23:36:04.633Z,99279.45
2018-07-31T23:38:34.987Z,99284.86
2018-07-31T23:41:04.467Z,99294.98
2018-07-31T23:44:36.076Z,99289.66
2018-07-31T23:47:05.083Z,99281.08
2018-07-31T23:49:34.234Z,99276.30
2018-07-31T23:52:04.511Z,99280.39
2018-07-31T23:54:34.740Z,99243.55
2018-07-31T23:57:04.869Z,99271.00
2018-07-31T23:59:34.199Z,99274.92
